메인 페이지
METAR-TAF:

METAR-TAF

공항 :

Resolute, 누나부트, 캐나다

위도: 74-43N, 경도: 094-59W, 고도: 67m

현재 날씨관측

예보는 23분 전, 22:00시(UTC)에 발표되었습니다.
무풍
온도 -31°C
습도 55%
기압 1003 hPa
시정: 24.1km
맑음
빙정

METAR: CYRB 202200Z 00000KT 15SM IC SKC M31/M37 A2962 RMK SLP046

시각: 16:23 (22:23 UTC)

예보

예보는 4 시간 45분 전, 17:38시(UTC)에 발표되었습니다.
예보 대상 시간: 20일 18시부터 21일 18시까지 (UTC)
북서8kt
시정: 10km
맑음
일시적
20일 18시부터 20일 21시까지 (UTC)
시정: 6.4km
빙정
전환 중
20일 19시부터 20일 21시까지 (UTC)
북동8kt
20일 2100시부터 (UTC)
북동8kt
시정: 10km
맑음
21일 1500시부터 (UTC)
북북동12kt
시정: 10km
고도 2000ft 상공 구름 조금

TAF: CYRB 201738Z 2018/2118 32008KT P6SM SKC TEMPO 2018/2021 4SM IC BECMG 2019/2021 04008KT FM202100 04008KT P6SM SKC FM211500 03012KT P6SM FEW020 RMK NXT FCST BY 210000Z

4,000개 이상의 공항 관측 자료 및 예보 (METAR 및 TAF 보고).

지도상에서 검색 가능한 기상관측소가 노란 점과 빨간 점으로 표시되어 있습니다.

기상관측소 명을 보려면 표시 위로 마우스를 이동하세요.

날씨 관측과 예보를 보려면 클릭하세요.

지도 변경 : 확대하려면 엑스 표시가 있는 녹색 버튼, 축소하려면 빼기 표시가 있는 녹색 버튼, 다음 페이지의 지도를 보려면 녹색 화살표를 클릭하세요.


METAR-TAF: